createdAt,value
2018-08-30T00:00:17.695Z,0.00
2018-08-30T00:01:17.682Z,0.00
2018-08-30T00:02:17.663Z,0.00
2018-08-30T00:03:17.794Z,0.00
2018-08-30T00:04:17.619Z,0.00
2018-08-30T00:05:17.607Z,0.00
2018-08-30T00:06:17.622Z,0.00
2018-08-30T00:07:17.607Z,0.00
2018-08-30T00:08:17.578Z,0.00
2018-08-30T00:09:17.561Z,0.00
2018-08-30T00:10:17.548Z,0.00
2018-08-30T00:11:17.579Z,0.00
2018-08-30T00:12:17.552Z,0.00
2018-08-30T00:13:17.541Z,0.00
2018-08-30T00:14:17.503Z,0.00
2018-08-30T00:15:17.495Z,0.00
2018-08-30T00:16:17.518Z,0.00
2018-08-30T00:17:17.476Z,0.00
2018-08-30T00:18:17.511Z,0.00
2018-08-30T00:19:17.457Z,0.00
2018-08-30T00:20:17.435Z,0.00
2018-08-30T00:21:17.487Z,0.00
2018-08-30T00:22:17.422Z,0.00
2018-08-30T00:23:17.726Z,0.00
2018-08-30T00:24:17.400Z,0.00
2018-08-30T00:25:17.389Z,0.00
2018-08-30T00:26:17.378Z,0.00
2018-08-30T00:27:17.369Z,0.00
2018-08-30T00:28:17.355Z,0.00
2018-08-30T00:29:17.367Z,0.00
2018-08-30T00:30:17.330Z,0.00
2018-08-30T00:31:17.430Z,0.00
2018-08-30T00:32:17.313Z,0.00
2018-08-30T00:33:17.325Z,0.00
2018-08-30T00:34:17.320Z,0.00
2018-08-30T00:35:17.279Z,0.00
2018-08-30T00:36:17.262Z,0.00
2018-08-30T00:37:17.292Z,0.00
2018-08-30T00:38:17.295Z,0.00
2018-08-30T00:39:17.229Z,0.00
2018-08-30T00:40:17.255Z,0.00
2018-08-30T00:41:17.277Z,0.00
2018-08-30T00:42:17.208Z,0.00
2018-08-30T00:43:17.199Z,0.00
2018-08-30T00:44:17.187Z,0.00
2018-08-30T00:45:17.185Z,0.00
2018-08-30T00:46:17.370Z,0.00
2018-08-30T00:47:17.141Z,0.00
2018-08-30T00:48:17.136Z,0.00
2018-08-30T00:49:17.124Z,0.00
2018-08-30T00:50:17.112Z,0.00
2018-08-30T00:51:17.113Z,0.00
2018-08-30T00:52:17.114Z,0.00
2018-08-30T00:53:17.078Z,0.00
2018-08-30T00:54:17.068Z,0.00
2018-08-30T00:55:17.062Z,0.00
2018-08-30T00:56:17.055Z,0.00
2018-08-30T00:57:17.035Z,0.00
2018-08-30T00:58:17.067Z,0.00
2018-08-30T00:59:17.044Z,0.00
2018-08-30T01:00:17.003Z,0.00
2018-08-30T01:01:16.997Z,0.00
2018-08-30T01:02:17.052Z,0.00
2018-08-30T01:03:16.981Z,0.00
2018-08-30T01:04:16.983Z,0.00
2018-08-30T01:05:16.949Z,0.00
2018-08-30T01:06:16.944Z,0.00
2018-08-30T01:07:16.952Z,0.00
2018-08-30T01:08:16.912Z,0.00
2018-08-30T01:09:16.905Z,0.00
2018-08-30T01:10:16.892Z,0.00
2018-08-30T01:11:16.899Z,0.00
2018-08-30T01:12:16.897Z,0.00
2018-08-30T01:13:16.863Z,0.00
2018-08-30T01:14:16.879Z,0.00
2018-08-30T01:15:16.838Z,0.00
2018-08-30T01:16:16.839Z,0.00
2018-08-30T01:17:16.814Z,0.00
2018-08-30T01:18:16.829Z,0.00
2018-08-30T01:19:16.811Z,0.00
2018-08-30T01:20:16.783Z,0.00
2018-08-30T01:21:16.767Z,0.00
2018-08-30T01:22:16.755Z,0.00
2018-08-30T01:23:16.805Z,0.00
2018-08-30T01:24:16.739Z,0.00
2018-08-30T01:25:16.725Z,0.00
2018-08-30T01:26:16.728Z,0.00
2018-08-30T01:27:16.703Z,0.00
2018-08-30T01:28:16.714Z,0.00
2018-08-30T01:29:16.691Z,0.00
2018-08-30T01:30:16.699Z,0.00
2018-08-30T01:31:16.661Z,0.00
2018-08-30T01:32:16.690Z,0.00
2018-08-30T01:33:16.662Z,0.00
2018-08-30T01:34:16.800Z,0.00
2018-08-30T01:35:16.613Z,0.00
2018-08-30T01:36:16.639Z,0.00
2018-08-30T01:37:16.619Z,0.00
2018-08-30T01:38:16.590Z,0.00
2018-08-30T01:39:16.581Z,0.00
2018-08-30T01:40:16.590Z,0.00
2018-08-30T01:41:16.578Z,0.00
2018-08-30T01:42:16.539Z,0.00
2018-08-30T01:43:16.536Z,0.00
2018-08-30T01:44:16.547Z,0.00
2018-08-30T01:45:16.530Z,0.00
2018-08-30T01:46:16.496Z,0.00
2018-08-30T01:47:16.485Z,0.00
2018-08-30T01:48:16.474Z,0.00
2018-08-30T01:49:16.510Z,0.00
2018-08-30T01:50:16.475Z,0.00
2018-08-30T01:51:16.442Z,0.00
2018-08-30T01:52:16.438Z,0.00
2018-08-30T01:53:16.418Z,0.00
2018-08-30T01:54:16.471Z,0.00
2018-08-30T01:55:16.416Z,0.00
2018-08-30T01:56:16.401Z,0.00
2018-08-30T01:57:16.375Z,0.00
2018-08-30T01:58:16.374Z,0.00
2018-08-30T01:59:16.358Z,0.00
2018-08-30T02:00:16.367Z,0.00
2018-08-30T02:01:16.332Z,0.00
2018-08-30T02:02:16.351Z,0.00
2018-08-30T02:03:16.312Z,0.00
2018-08-30T02:04:16.305Z,0.00
2018-08-30T02:05:16.337Z,0.00
2018-08-30T02:06:16.292Z,0.00
2018-08-30T02:07:16.265Z,0.00
2018-08-30T02:08:16.261Z,0.00
2018-08-30T02:09:16.270Z,0.00
2018-08-30T02:10:16.247Z,0.00
2018-08-30T02:11:16.260Z,0.00
2018-08-30T02:12:16.217Z,0.00
2018-08-30T02:13:16.203Z,0.00
2018-08-30T02:14:16.190Z,0.00
2018-08-30T02:15:16.183Z,0.00
2018-08-30T02:16:16.194Z,0.00
2018-08-30T02:17:16.157Z,0.00
2018-08-30T02:18:16.845Z,0.00
2018-08-30T02:19:16.138Z,0.00
2018-08-30T02:20:16.135Z,0.00
2018-08-30T02:21:16.136Z,0.00
2018-08-30T02:22:16.105Z,0.00
2018-08-30T02:23:16.099Z,0.00
2018-08-30T02:24:16.089Z,0.00
2018-08-30T02:25:16.095Z,0.00
2018-08-30T02:26:16.094Z,0.00
2018-08-30T02:27:16.048Z,0.00
2018-08-30T02:28:16.042Z,0.00
2018-08-30T02:29:16.029Z,0.00
2018-08-30T02:30:16.024Z,0.00
2018-08-30T02:31:16.010Z,0.00
2018-08-30T02:32:16.019Z,0.00
2018-08-30T02:33:15.998Z,0.00
2018-08-30T02:34:15.970Z,0.00
2018-08-30T02:35:15.955Z,0.00
2018-08-30T02:36:15.952Z,0.00
2018-08-30T02:37:16.242Z,0.00
2018-08-30T02:38:15.934Z,0.00
2018-08-30T02:39:15.929Z,0.00
2018-08-30T02:40:15.901Z,0.00
2018-08-30T02:41:15.897Z,0.00
2018-08-30T02:42:15.882Z,0.00
2018-08-30T02:43:16.163Z,0.00
2018-08-30T02:44:15.867Z,0.00
2018-08-30T02:45:15.875Z,0.00
2018-08-30T02:46:15.842Z,0.00
2018-08-30T02:47:15.831Z,0.00
2018-08-30T02:48:15.822Z,0.00
2018-08-30T02:49:15.833Z,0.00
2018-08-30T02:50:15.807Z,0.00
2018-08-30T02:51:15.786Z,0.00
2018-08-30T02:52:15.778Z,0.00
2018-08-30T02:53:15.761Z,0.00
2018-08-30T02:54:15.866Z,0.00
2018-08-30T02:55:15.745Z,0.00
2018-08-30T02:56:15.735Z,0.00
2018-08-30T02:57:15.732Z,0.00
2018-08-30T02:58:15.715Z,0.00
2018-08-30T02:59:15.701Z,0.00
2018-08-30T03:00:15.727Z,0.00
2018-08-30T03:01:15.678Z,0.00
2018-08-30T03:02:15.684Z,0.00
2018-08-30T03:03:15.656Z,0.00
2018-08-30T03:04:15.648Z,0.00
2018-08-30T03:05:15.653Z,0.00
2018-08-30T03:06:15.645Z,0.00
2018-08-30T03:07:15.643Z,0.00
2018-08-30T03:08:15.607Z,0.00
2018-08-30T03:09:15.590Z,0.00
2018-08-30T03:10:15.584Z,0.00
2018-08-30T03:11:15.566Z,0.00
2018-08-30T03:12:15.652Z,0.00
2018-08-30T03:13:15.563Z,0.00
2018-08-30T03:14:15.546Z,0.00
2018-08-30T03:15:15.526Z,0.00
2018-08-30T03:16:15.623Z,0.00
2018-08-30T03:17:15.508Z,0.00
2018-08-30T03:18:15.581Z,0.00
2018-08-30T03:19:15.492Z,0.00
2018-08-30T03:20:15.578Z,0.00
2018-08-30T03:21:15.455Z,0.00
2018-08-30T03:22:15.542Z,0.00
2018-08-30T03:23:15.470Z,0.00
2018-08-30T03:24:15.447Z,0.00
2018-08-30T03:25:15.438Z,0.00
2018-08-30T03:26:15.401Z,0.00
2018-08-30T03:27:15.391Z,0.00
2018-08-30T03:28:15.384Z,0.00
2018-08-30T03:29:15.376Z,0.00
2018-08-30T03:30:15.401Z,0.00
2018-08-30T03:31:15.377Z,0.00
2018-08-30T03:32:15.352Z,0.00
2018-08-30T03:33:15.356Z,0.00
2018-08-30T03:34:15.338Z,0.00
2018-08-30T03:35:15.316Z,0.00
2018-08-30T03:36:15.310Z,0.00
2018-08-30T03:37:15.287Z,0.00
2018-08-30T03:38:15.275Z,0.00
2018-08-30T03:39:15.361Z,0.00
2018-08-30T03:40:15.262Z,0.00
2018-08-30T03:41:15.241Z,0.00
2018-08-30T03:42:15.234Z,0.00
2018-08-30T03:43:15.225Z,0.00
2018-08-30T03:44:15.227Z,0.00
2018-08-30T03:45:15.196Z,0.00
2018-08-30T03:46:15.186Z,0.00
2018-08-30T03:47:15.189Z,0.00
2018-08-30T03:48:15.194Z,0.00
2018-08-30T03:49:15.188Z,0.00
2018-08-30T03:50:15.168Z,0.00
2018-08-30T03:52:31.534Z,0.00
2018-08-30T03:53:31.333Z,0.00
2018-08-30T03:54:31.335Z,0.00
2018-08-30T03:55:31.311Z,0.00
2018-08-30T03:56:31.303Z,0.00
2018-08-30T03:57:31.283Z,0.00
2018-08-30T03:58:31.284Z,0.00
2018-08-30T03:59:31.293Z,0.00
2018-08-30T04:00:31.305Z,0.00
2018-08-30T04:01:31.247Z,0.00
2018-08-30T04:02:31.281Z,0.00
2018-08-30T04:03:31.216Z,0.00
2018-08-30T04:04:31.213Z,0.00
2018-08-30T04:05:31.224Z,0.00
2018-08-30T04:06:31.279Z,0.00
2018-08-30T04:07:31.206Z,0.00
2018-08-30T04:08:31.217Z,0.00
2018-08-30T04:09:31.155Z,0.00
2018-08-30T04:10:31.305Z,0.00
2018-08-30T04:11:31.144Z,0.00
2018-08-30T04:12:31.133Z,0.00
2018-08-30T04:13:31.144Z,0.00
2018-08-30T04:14:31.111Z,0.00
2018-08-30T04:15:31.109Z,0.00
2018-08-30T04:16:31.079Z,0.00
2018-08-30T04:17:31.077Z,0.00
2018-08-30T04:18:31.058Z,0.00
2018-08-30T04:19:31.057Z,0.00
2018-08-30T04:20:31.063Z,0.00
2018-08-30T04:21:31.052Z,0.00
2018-08-30T04:22:31.033Z,0.00
2018-08-30T04:23:31.030Z,0.00
2018-08-30T04:24:30.988Z,0.00
2018-08-30T04:25:31.007Z,0.00
2018-08-30T04:26:31.006Z,0.00
2018-08-30T04:27:31.009Z,0.00
2018-08-30T04:28:30.962Z,0.00
2018-08-30T04:29:30.958Z,0.00
2018-08-30T04:30:30.931Z,0.00
2018-08-30T04:31:30.960Z,0.00
2018-08-30T04:32:30.924Z,0.00
2018-08-30T04:33:30.910Z,0.00
2018-08-30T04:34:30.902Z,0.00
2018-08-30T04:35:30.879Z,0.00
2018-08-30T04:36:30.888Z,0.00
2018-08-30T04:37:30.847Z,0.00
2018-08-30T04:38:30.835Z,0.00
2018-08-30T04:39:30.825Z,0.00
2018-08-30T04:40:30.827Z,0.00
2018-08-30T04:41:30.824Z,0.00
2018-08-30T04:42:30.985Z,0.00
2018-08-30T04:43:30.782Z,0.00
2018-08-30T04:44:30.776Z,0.00
2018-08-30T04:45:30.783Z,0.00
2018-08-30T04:46:30.760Z,0.00
2018-08-30T04:47:30.738Z,0.00
2018-08-30T04:48:30.755Z,0.00
2018-08-30T04:49:30.718Z,0.00
2018-08-30T04:50:30.789Z,0.00
2018-08-30T04:51:30.697Z,0.00
2018-08-30T04:52:30.725Z,0.00
2018-08-30T04:53:30.683Z,0.00
2018-08-30T04:54:30.664Z,0.00
2018-08-30T04:55:30.651Z,0.00
2018-08-30T04:56:30.642Z,0.00
2018-08-30T04:57:30.661Z,0.00
2018-08-30T04:58:30.641Z,0.00
2018-08-30T04:59:30.610Z,0.00
2018-08-30T05:00:30.595Z,0.00
2018-08-30T05:01:30.629Z,0.00
2018-08-30T05:02:30.582Z,0.00
2018-08-30T05:03:30.595Z,0.00
2018-08-30T05:04:30.572Z,4.00
2018-08-30T05:05:30.543Z,4.00
2018-08-30T05:06:30.534Z,4.00
2018-08-30T05:07:30.526Z,4.00
2018-08-30T05:08:30.540Z,4.00
2018-08-30T05:09:30.528Z,4.00
2018-08-30T05:10:30.491Z,4.00
2018-08-30T05:11:30.483Z,4.00
2018-08-30T05:12:30.498Z,4.00
2018-08-30T05:13:30.485Z,4.00
2018-08-30T05:14:30.449Z,4.00
2018-08-30T05:15:30.437Z,0.00
2018-08-30T05:16:30.454Z,4.00
2018-08-30T05:17:30.417Z,4.00
2018-08-30T05:18:30.440Z,4.00
2018-08-30T05:19:30.403Z,4.00
2018-08-30T05:20:30.379Z,4.00
2018-08-30T05:21:30.729Z,4.00
2018-08-30T05:22:30.361Z,4.00
2018-08-30T05:23:30.359Z,0.00
2018-08-30T05:24:30.374Z,0.00
2018-08-30T05:25:30.325Z,0.00
2018-08-30T05:26:30.318Z,0.00
2018-08-30T05:27:30.338Z,0.00
2018-08-30T05:28:30.321Z,0.00
2018-08-30T05:29:30.286Z,0.00
2018-08-30T05:30:30.283Z,0.00
2018-08-30T05:31:30.262Z,0.00
2018-08-30T05:32:30.247Z,0.00
2018-08-30T05:33:30.265Z,0.00
2018-08-30T05:34:30.227Z,4.00
2018-08-30T05:35:30.239Z,4.00
2018-08-30T05:36:30.225Z,0.00
2018-08-30T05:37:30.192Z,4.00
2018-08-30T05:38:30.205Z,0.00
2018-08-30T05:39:30.184Z,0.00
2018-08-30T05:40:30.165Z,0.00
2018-08-30T05:41:30.177Z,4.00
2018-08-30T05:42:30.139Z,4.00
2018-08-30T05:43:30.124Z,4.00
2018-08-30T05:44:30.424Z,4.00
2018-08-30T05:45:30.111Z,4.00
2018-08-30T05:46:30.091Z,4.00
2018-08-30T05:47:30.090Z,4.00
2018-08-30T05:48:30.078Z,4.00
2018-08-30T05:49:30.080Z,4.00
2018-08-30T05:50:30.085Z,8.00
2018-08-30T05:51:30.036Z,4.00
2018-08-30T05:52:30.024Z,8.00
2018-08-30T05:53:30.019Z,4.00
2018-08-30T05:54:30.026Z,4.00
2018-08-30T05:55:29.996Z,4.00
2018-08-30T05:56:29.992Z,8.00
2018-08-30T05:57:29.976Z,4.00
2018-08-30T05:58:29.957Z,8.00
2018-08-30T05:59:30.024Z,8.00
2018-08-30T06:00:29.960Z,4.00
2018-08-30T06:01:29.957Z,4.00
2018-08-30T06:02:29.916Z,4.00
2018-08-30T06:03:29.903Z,8.00
2018-08-30T06:04:29.890Z,4.00
2018-08-30T06:05:29.949Z,4.00
2018-08-30T06:06:29.885Z,4.00
2018-08-30T06:07:29.868Z,4.00
2018-08-30T06:08:29.886Z,4.00
2018-08-30T06:09:29.884Z,4.00
2018-08-30T06:10:30.062Z,4.00
2018-08-30T06:11:29.818Z,4.00
2018-08-30T06:12:29.817Z,4.00
2018-08-30T06:13:29.793Z,4.00
2018-08-30T06:14:29.791Z,8.00
2018-08-30T06:15:29.768Z,8.00
2018-08-30T06:16:29.775Z,12.00
2018-08-30T06:17:29.751Z,8.00
2018-08-30T06:18:29.732Z,8.00
2018-08-30T06:19:29.746Z,12.00
2018-08-30T06:20:29.732Z,12.00
2018-08-30T06:21:29.706Z,12.00
2018-08-30T06:22:29.683Z,12.00
2018-08-30T06:23:29.676Z,4.00
2018-08-30T06:24:29.674Z,8.00
2018-08-30T06:25:29.680Z,8.00
2018-08-30T06:26:29.951Z,8.00
2018-08-30T06:27:29.647Z,8.00
2018-08-30T06:28:29.630Z,8.00
2018-08-30T06:29:29.605Z,8.00
2018-08-30T06:30:29.593Z,8.00
2018-08-30T06:31:29.595Z,12.00
2018-08-30T06:32:29.619Z,12.00
2018-08-30T06:33:29.563Z,12.00
2018-08-30T06:34:29.561Z,8.00
2018-08-30T06:35:29.542Z,8.00
2018-08-30T06:36:29.541Z,8.00
2018-08-30T06:37:29.531Z,8.00
2018-08-30T06:38:29.557Z,12.00
2018-08-30T06:39:29.495Z,12.00
2018-08-30T06:40:29.490Z,12.00
2018-08-30T06:41:29.485Z,12.00
2018-08-30T06:42:29.515Z,16.00
2018-08-30T06:43:29.474Z,16.00
2018-08-30T06:44:29.551Z,12.00
2018-08-30T06:45:29.441Z,16.00
2018-08-30T06:46:29.508Z,12.00
2018-08-30T06:47:29.415Z,8.00
2018-08-30T06:48:29.420Z,12.00
2018-08-30T06:49:29.382Z,12.00
2018-08-30T06:50:29.401Z,12.00
2018-08-30T06:51:29.369Z,16.00
2018-08-30T06:52:29.351Z,16.00
2018-08-30T06:53:29.520Z,16.00
2018-08-30T06:54:29.343Z,16.00
2018-08-30T06:55:29.322Z,20.00
2018-08-30T06:56:29.378Z,20.00
2018-08-30T06:57:29.293Z,16.00
2018-08-30T06:58:29.356Z,16.00
2018-08-30T06:59:29.272Z,16.00
2018-08-30T07:00:29.264Z,12.00
2018-08-30T07:01:29.244Z,12.00
2018-08-30T07:02:29.233Z,12.00
2018-08-30T07:03:29.246Z,12.00
2018-08-30T07:04:29.217Z,12.00
2018-08-30T07:05:29.205Z,16.00
2018-08-30T07:06:29.206Z,16.00
2018-08-30T07:07:29.213Z,20.00
2018-08-30T07:11:58.498Z,24.00
2018-08-30T07:12:58.483Z,28.00
2018-08-30T07:13:58.446Z,24.00
2018-08-30T07:14:58.471Z,20.00
2018-08-30T07:15:58.424Z,24.00
2018-08-30T07:16:58.412Z,24.00
2018-08-30T07:17:58.400Z,24.00
2018-08-30T07:18:58.414Z,24.00
2018-08-30T07:19:58.373Z,20.00
2018-08-30T07:20:58.415Z,24.00
2018-08-30T07:21:58.354Z,24.00
2018-08-30T07:22:58.344Z,24.00
2018-08-30T07:23:58.325Z,24.00
2018-08-30T07:24:58.341Z,28.00
2018-08-30T07:25:58.310Z,28.00
2018-08-30T07:26:58.300Z,28.00
2018-08-30T07:27:58.291Z,28.00
2018-08-30T07:28:58.310Z,32.00
2018-08-30T07:29:58.259Z,28.00
2018-08-30T07:30:58.278Z,28.00
2018-08-30T07:31:58.237Z,32.00
2018-08-30T07:32:58.229Z,28.00
2018-08-30T07:33:58.243Z,32.00
2018-08-30T07:34:58.400Z,36.00
2018-08-30T07:35:58.187Z,36.00
2018-08-30T07:36:58.178Z,40.00
2018-08-30T07:37:58.170Z,36.00
2018-08-30T07:38:58.172Z,36.00
2018-08-30T07:39:58.181Z,44.00
2018-08-30T07:40:58.173Z,56.00
2018-08-30T07:41:58.125Z,48.00
2018-08-30T07:42:58.113Z,48.00
2018-08-30T07:43:58.113Z,52.00
2018-08-30T07:44:58.111Z,76.00
2018-08-30T07:45:58.140Z,80.00
2018-08-30T07:46:58.098Z,64.00
2018-08-30T07:47:58.061Z,52.00
2018-08-30T07:48:58.046Z,44.00
2018-08-30T07:49:58.029Z,40.00
2018-08-30T07:50:58.100Z,40.00
2018-08-30T07:51:58.045Z,60.00
2018-08-30T07:52:57.997Z,52.00
2018-08-30T07:53:57.984Z,60.00
2018-08-30T07:54:58.016Z,64.00
2018-08-30T07:55:58.005Z,64.00
2018-08-30T07:56:57.956Z,84.00
2018-08-30T07:57:57.963Z,56.00
2018-08-30T07:58:57.962Z,72.00
2018-08-30T07:59:58.009Z,48.00
2018-08-30T08:00:57.933Z,44.00
2018-08-30T08:01:57.922Z,72.00
2018-08-30T08:02:57.900Z,48.00
2018-08-30T08:03:57.879Z,40.00
2018-08-30T08:04:57.882Z,40.00
2018-08-30T08:05:57.862Z,44.00
2018-08-30T08:06:57.846Z,72.00
2018-08-30T08:07:57.848Z,84.00
2018-08-30T08:08:57.819Z,92.00
2018-08-30T08:09:57.874Z,88.00
2018-08-30T08:10:57.801Z,88.00
2018-08-30T08:11:57.857Z,60.00
2018-08-30T08:12:57.776Z,68.00
2018-08-30T08:13:57.819Z,56.00
2018-08-30T08:14:57.758Z,52.00
2018-08-30T08:15:57.747Z,36.00
2018-08-30T08:16:57.733Z,44.00
2018-08-30T08:17:57.716Z,52.00
2018-08-30T08:18:57.762Z,92.00
2018-08-30T08:19:57.696Z,68.00
2018-08-30T08:20:57.734Z,76.00
2018-08-30T08:21:57.687Z,84.00
2018-08-30T08:22:57.690Z,72.00
2018-08-30T08:23:57.654Z,52.00
2018-08-30T08:24:57.639Z,48.00
2018-08-30T08:25:57.637Z,44.00
2018-08-30T08:26:57.653Z,88.00
2018-08-30T08:27:57.635Z,44.00
2018-08-30T08:28:57.601Z,92.00
2018-08-30T08:29:57.591Z,100.00
2018-08-30T08:30:57.634Z,100.00
2018-08-30T08:31:57.567Z,88.00
2018-08-30T08:32:57.620Z,72.00
2018-08-30T08:33:57.569Z,80.00
2018-08-30T08:34:57.545Z,96.00
2018-08-30T08:35:57.540Z,96.00
2018-08-30T08:36:57.515Z,52.00
2018-08-30T08:37:57.519Z,60.00
2018-08-30T08:38:57.542Z,52.00
2018-08-30T08:39:57.488Z,48.00
2018-08-30T08:40:57.504Z,112.00
2018-08-30T08:41:57.489Z,84.00
2018-08-30T08:42:57.622Z,96.00
2018-08-30T08:43:57.439Z,104.00
2018-08-30T08:44:57.431Z,108.00
2018-08-30T08:45:57.426Z,116.00
2018-08-30T08:46:57.448Z,112.00
2018-08-30T08:47:57.389Z,60.00
2018-08-30T08:48:57.390Z,80.00
2018-08-30T08:49:57.362Z,108.00
2018-08-30T08:50:57.360Z,104.00
2018-08-30T08:51:57.371Z,104.00
2018-08-30T08:52:57.344Z,68.00
2018-08-30T08:53:57.323Z,68.00
2018-08-30T08:54:57.315Z,100.00
2018-08-30T08:55:57.296Z,100.00
2018-08-30T08:56:57.709Z,92.00
2018-08-30T08:57:57.279Z,100.00
2018-08-30T08:58:57.356Z,104.00
2018-08-30T08:59:57.255Z,100.00
2018-08-30T09:00:57.246Z,104.00
2018-08-30T09:01:57.226Z,100.00
2018-08-30T09:02:57.248Z,76.00
2018-08-30T09:05:06.987Z,100.00
2018-08-30T09:06:06.973Z,104.00
2018-08-30T09:07:07.032Z,100.00
2018-08-30T09:08:06.974Z,100.00
2018-08-30T09:09:06.944Z,104.00
2018-08-30T09:10:06.928Z,100.00
2018-08-30T09:11:06.927Z,104.00
2018-08-30T09:12:06.906Z,104.00
2018-08-30T09:13:06.947Z,108.00
2018-08-30T09:14:06.883Z,116.00
2018-08-30T09:15:06.896Z,112.00
2018-08-30T09:16:06.871Z,112.00
2018-08-30T09:17:06.860Z,112.00
2018-08-30T09:18:06.849Z,108.00
2018-08-30T09:19:06.861Z,64.00
2018-08-30T09:20:06.820Z,64.00
2018-08-30T09:21:06.830Z,96.00
2018-08-30T09:22:06.797Z,68.00
2018-08-30T09:23:06.883Z,116.00
2018-08-30T09:24:06.785Z,104.00
2018-08-30T09:25:06.786Z,112.00
2018-08-30T09:26:06.766Z,128.00
2018-08-30T09:27:06.761Z,128.00
2018-08-30T09:28:06.753Z,80.00
2018-08-30T09:29:06.753Z,112.00
2018-08-30T09:30:06.712Z,108.00
2018-08-30T09:31:06.766Z,68.00
2018-08-30T09:32:06.701Z,88.00
2018-08-30T09:33:06.676Z,96.00
2018-08-30T09:34:06.699Z,108.00
2018-08-30T09:35:06.687Z,56.00
2018-08-30T09:36:06.656Z,52.00
2018-08-30T09:37:06.637Z,60.00
2018-08-30T09:38:06.627Z,52.00
2018-08-30T09:39:06.617Z,100.00
2018-08-30T09:40:06.646Z,56.00
2018-08-30T09:41:06.593Z,60.00
2018-08-30T09:42:06.615Z,80.00
2018-08-30T09:43:06.594Z,124.00
2018-08-30T09:44:06.576Z,116.00
2018-08-30T09:45:06.560Z,92.00
2018-08-30T09:46:06.541Z,68.00
2018-08-30T09:47:06.533Z,60.00
2018-08-30T09:48:06.552Z,48.00
2018-08-30T09:49:06.587Z,44.00
2018-08-30T09:50:06.498Z,32.00
2018-08-30T09:51:06.487Z,24.00
2018-08-30T09:52:06.467Z,28.00
2018-08-30T09:53:06.468Z,32.00
2018-08-30T09:54:06.486Z,44.00
2018-08-30T09:55:06.460Z,56.00
2018-08-30T09:56:06.426Z,56.00
2018-08-30T09:57:06.645Z,68.00
2018-08-30T09:58:06.421Z,68.00
2018-08-30T09:59:06.402Z,64.00
2018-08-30T10:00:06.409Z,80.00
2018-08-30T10:01:06.372Z,96.00
2018-08-30T10:02:06.360Z,136.00
2018-08-30T10:03:06.367Z,124.00
2018-08-30T10:04:06.379Z,88.00
2018-08-30T10:05:06.335Z,44.00
2018-08-30T10:06:06.324Z,28.00
2018-08-30T10:07:06.332Z,36.00
2018-08-30T10:08:06.301Z,60.00
2018-08-30T10:09:06.291Z,60.00
2018-08-30T10:10:06.306Z,52.00
2018-08-30T10:11:06.263Z,64.00
2018-08-30T10:12:06.259Z,112.00
2018-08-30T10:13:06.241Z,120.00
2018-08-30T10:14:06.230Z,124.00
2018-08-30T10:15:06.245Z,116.00
2018-08-30T10:16:06.228Z,92.00
2018-08-30T10:17:06.599Z,100.00
2018-08-30T10:18:06.192Z,108.00
2018-08-30T10:19:06.181Z,48.00
2018-08-30T10:20:06.178Z,36.00
2018-08-30T10:21:06.155Z,32.00
2018-08-30T10:22:06.146Z,36.00
2018-08-30T10:23:06.157Z,68.00
2018-08-30T10:24:06.158Z,64.00
2018-08-30T10:25:06.127Z,104.00
2018-08-30T10:26:06.180Z,112.00
2018-08-30T10:27:06.089Z,112.00
2018-08-30T10:28:06.082Z,116.00
2018-08-30T10:29:06.080Z,112.00
2018-08-30T10:30:06.090Z,88.00
2018-08-30T10:31:06.054Z,84.00
2018-08-30T10:32:06.051Z,84.00
2018-08-30T10:33:06.026Z,128.00
2018-08-30T10:34:06.040Z,140.00
2018-08-30T10:35:06.005Z,88.00
2018-08-30T10:36:06.211Z,68.00
2018-08-30T10:37:06.038Z,52.00
2018-08-30T10:38:05.983Z,40.00
2018-08-30T10:39:05.958Z,48.00
2018-08-30T10:40:05.953Z,56.00
2018-08-30T10:41:05.951Z,60.00
2018-08-30T10:42:05.978Z,112.00
2018-08-30T10:43:06.009Z,116.00
2018-08-30T10:44:05.904Z,120.00
2018-08-30T10:45:05.895Z,120.00
2018-08-30T10:46:05.885Z,124.00
2018-08-30T10:47:05.953Z,108.00
2018-08-30T10:48:05.862Z,120.00
2018-08-30T10:49:05.856Z,72.00
2018-08-30T10:50:05.845Z,76.00
2018-08-30T10:51:05.830Z,128.00
2018-08-30T10:52:05.826Z,124.00
2018-08-30T10:53:05.851Z,60.00
2018-08-30T10:54:05.796Z,88.00
2018-08-30T10:55:05.784Z,76.00
2018-08-30T10:56:05.791Z,128.00
2018-08-30T10:57:05.767Z,108.00
2018-08-30T10:58:05.824Z,136.00
2018-08-30T10:59:05.785Z,128.00
2018-08-30T11:00:05.733Z,120.00
2018-08-30T11:01:05.745Z,120.00
2018-08-30T11:02:05.756Z,100.00
2018-08-30T11:03:05.727Z,84.00
2018-08-30T11:04:05.697Z,76.00
2018-08-30T11:05:05.703Z,128.00
2018-08-30T11:06:05.665Z,84.00
2018-08-30T11:07:05.672Z,128.00
2018-08-30T11:08:05.697Z,132.00
2018-08-30T11:09:05.691Z,76.00
2018-08-30T11:10:05.669Z,88.00
2018-08-30T11:11:05.625Z,144.00
2018-08-30T11:12:05.602Z,68.00
2018-08-30T11:13:05.729Z,72.00
2018-08-30T11:14:05.581Z,116.00
2018-08-30T11:15:05.587Z,96.00
2018-08-30T11:16:05.591Z,108.00
2018-08-30T11:17:05.558Z,68.00
2018-08-30T11:18:05.539Z,132.00
2018-08-30T11:19:05.673Z,136.00
2018-08-30T11:20:05.510Z,144.00
2018-08-30T11:21:05.508Z,144.00
2018-08-30T11:22:05.490Z,148.00
2018-08-30T11:23:05.498Z,148.00
2018-08-30T11:24:05.492Z,148.00
2018-08-30T11:25:05.494Z,120.00
2018-08-30T11:26:05.447Z,148.00
2018-08-30T11:27:05.468Z,128.00
2018-08-30T11:28:05.429Z,124.00
2018-08-30T11:29:05.413Z,120.00
2018-08-30T11:30:05.409Z,112.00
2018-08-30T11:31:05.439Z,108.00
2018-08-30T11:32:05.412Z,112.00
2018-08-30T11:33:05.374Z,112.00
2018-08-30T11:34:05.381Z,108.00
2018-08-30T11:35:05.349Z,108.00
2018-08-30T11:36:05.385Z,104.00
2018-08-30T11:37:05.326Z,80.00
2018-08-30T11:38:05.346Z,64.00
2018-08-30T11:39:05.308Z,76.00
2018-08-30T11:40:05.322Z,76.00
2018-08-30T11:41:05.297Z,60.00
2018-08-30T11:42:05.270Z,48.00
2018-08-30T11:43:05.305Z,32.00
2018-08-30T11:44:05.273Z,24.00
2018-08-30T11:45:05.255Z,24.00
2018-08-30T11:46:05.230Z,24.00
2018-08-30T11:47:05.225Z,40.00
2018-08-30T11:48:05.235Z,48.00
2018-08-30T11:49:05.193Z,28.00
2018-08-30T11:50:05.190Z,28.00
2018-08-30T11:51:05.206Z,28.00
2018-08-30T11:52:05.169Z,36.00
2018-08-30T11:53:05.151Z,40.00
2018-08-30T11:54:05.240Z,68.00
2018-08-30T11:55:05.134Z,72.00
2018-08-30T11:56:05.150Z,84.00
2018-08-30T11:57:05.111Z,100.00
2018-08-30T11:58:05.145Z,104.00
2018-08-30T11:59:05.096Z,108.00
2018-08-30T12:00:05.116Z,108.00
2018-08-30T12:01:05.068Z,128.00
2018-08-30T12:02:05.064Z,152.00
2018-08-30T12:03:05.045Z,160.00
2018-08-30T12:04:05.075Z,152.00
2018-08-30T12:05:05.023Z,140.00
2018-08-30T12:06:05.012Z,132.00
2018-08-30T12:07:05.101Z,144.00
2018-08-30T12:08:05.096Z,164.00
2018-08-30T12:09:05.005Z,176.00
2018-08-30T12:10:04.996Z,212.00
2018-08-30T12:11:05.090Z,228.00
2018-08-30T12:12:04.949Z,188.00
2018-08-30T12:13:04.965Z,180.00
2018-08-30T12:14:04.923Z,152.00
2018-08-30T12:15:04.964Z,108.00
2018-08-30T12:16:04.914Z,104.00
2018-08-30T12:17:04.893Z,96.00
2018-08-30T12:18:04.884Z,60.00
2018-08-30T12:19:04.877Z,64.00
2018-08-30T12:20:04.871Z,144.00
2018-08-30T12:21:04.892Z,184.00
2018-08-30T12:22:04.861Z,200.00
2018-08-30T12:23:04.836Z,224.00
2018-08-30T12:24:04.843Z,228.00
2018-08-30T12:25:04.817Z,232.00
2018-08-30T12:26:04.808Z,240.00
2018-08-30T12:27:04.795Z,240.00
2018-08-30T12:28:04.849Z,240.00
2018-08-30T12:29:05.042Z,228.00
2018-08-30T12:30:04.758Z,220.00
2018-08-30T12:31:04.847Z,220.00
2018-08-30T12:32:04.771Z,216.00
2018-08-30T12:33:04.811Z,208.00
2018-08-30T12:34:04.786Z,192.00
2018-08-30T12:35:04.847Z,192.00
2018-08-30T12:36:04.692Z,180.00
2018-08-30T12:37:04.722Z,168.00
2018-08-30T12:38:04.666Z,144.00
2018-08-30T12:39:04.696Z,144.00
2018-08-30T12:40:04.688Z,148.00
2018-08-30T12:41:04.662Z,156.00
2018-08-30T12:42:04.621Z,136.00
2018-08-30T12:43:04.736Z,120.00
2018-08-30T12:44:04.659Z,104.00
2018-08-30T12:45:04.668Z,100.00
2018-08-30T12:46:04.620Z,84.00
2018-08-30T12:47:04.583Z,100.00
2018-08-30T12:48:04.591Z,92.00
2018-08-30T12:49:04.576Z,112.00
2018-08-30T12:50:04.572Z,60.00
2018-08-30T12:51:04.683Z,72.00
2018-08-30T12:52:04.603Z,48.00
2018-08-30T12:53:04.552Z,36.00
2018-08-30T12:54:04.613Z,28.00
2018-08-30T12:55:04.595Z,16.00
2018-08-30T12:56:04.586Z,12.00
2018-08-30T12:57:04.550Z,8.00
2018-08-30T12:58:09.911Z,16.00
2018-08-30T12:59:05.631Z,16.00
2018-08-30T13:00:04.534Z,16.00
2018-08-30T13:01:04.551Z,24.00
2018-08-30T13:02:04.552Z,20.00
2018-08-30T13:03:04.496Z,24.00
2018-08-30T13:04:04.594Z,28.00
2018-08-30T13:05:04.571Z,20.00
2018-08-30T13:06:04.664Z,20.00